createdAt,value
2022-10-03T00:00:36.862Z,30.61
2022-10-03T00:01:53.398Z,30.28
2022-10-03T00:03:16.846Z,30.55
2022-10-03T00:04:59.306Z,30.84
2022-10-03T00:06:22.248Z,30.46
2022-10-03T00:07:36.115Z,30.02
2022-10-03T00:09:18.597Z,30.23
2022-10-03T00:10:26.058Z,30.24
2022-10-03T00:11:59.855Z,29.94
2022-10-03T00:13:20.914Z,30.46
2022-10-03T00:14:31.372Z,30.13
2022-10-03T00:16:01.940Z,30.24
2022-10-03T00:17:15.219Z,30.26
2022-10-03T00:18:48.042Z,30.67
2022-10-03T00:20:02.484Z,30.10
2022-10-03T00:21:25.927Z,30.17
2022-10-03T00:22:48.313Z,30.75
2022-10-03T00:24:13.851Z,30.22
2022-10-03T00:25:18.426Z,30.69
2022-10-03T00:26:30.606Z,30.17
2022-10-03T00:27:44.417Z,30.15
2022-10-03T00:28:58.027Z,30.32
2022-10-03T00:30:05.933Z,30.46
2022-10-03T00:31:17.052Z,30.44
2022-10-03T00:32:38.437Z,30.87
2022-10-03T00:34:03.068Z,30.82
2022-10-03T00:35:20.802Z,30.66
2022-10-03T00:36:55.483Z,30.25
2022-10-03T00:38:11.585Z,29.88
2022-10-03T00:39:37.683Z,30.24
2022-10-03T00:41:04.323Z,30.42
2022-10-03T00:42:18.263Z,29.85
2022-10-03T00:43:56.855Z,30.77
2022-10-03T00:45:13.496Z,30.28
2022-10-03T00:46:36.584Z,29.90
2022-10-03T00:48:25.998Z,30.52
2022-10-03T00:50:02.842Z,29.98
2022-10-03T00:51:13.820Z,30.79
2022-10-03T00:52:51.032Z,30.51
2022-10-03T00:54:06.536Z,30.34
2022-10-03T00:55:34.381Z,29.95
2022-10-03T00:57:04.301Z,30.39
2022-10-03T00:58:22.496Z,30.33
2022-10-03T01:00:07.930Z,30.41
2022-10-03T01:01:49.064Z,30.31
2022-10-03T01:03:12.580Z,30.08
2022-10-03T01:04:27.020Z,30.27
2022-10-03T01:05:43.125Z,30.58
2022-10-03T01:07:06.053Z,30.50
2022-10-03T01:08:35.629Z,30.89
2022-10-03T01:09:58.558Z,29.98
2022-10-03T01:11:30.748Z,30.10
2022-10-03T01:12:55.007Z,30.75
2022-10-03T01:14:18.048Z,30.76
2022-10-03T01:15:32.222Z,30.51
2022-10-03T01:17:04.738Z,30.40
2022-10-03T01:18:30.148Z,30.16
2022-10-03T01:20:06.704Z,30.41
2022-10-03T01:21:11.075Z,30.51
2022-10-03T01:22:21.615Z,30.55
2022-10-03T01:23:38.310Z,30.47
2022-10-03T01:24:53.729Z,30.84
2022-10-03T01:26:19.818Z,30.14
2022-10-03T01:27:56.952Z,30.59
2022-10-03T01:29:22.132Z,30.36
2022-10-03T01:30:24.106Z,30.68
2022-10-03T01:31:55.698Z,30.78
2022-10-03T01:33:10.708Z,30.07
2022-10-03T01:34:21.629Z,30.08
2022-10-03T01:35:36.142Z,30.34
2022-10-03T01:36:49.943Z,30.35
2022-10-03T01:38:09.488Z,30.68
2022-10-03T01:39:50.621Z,30.07
2022-10-03T01:41:09.721Z,30.23
2022-10-03T01:42:41.146Z,29.98
2022-10-03T01:43:46.927Z,30.01
2022-10-03T01:45:03.476Z,30.73
2022-10-03T01:46:33.643Z,30.62
2022-10-03T01:47:47.895Z,30.53
2022-10-03T01:49:15.856Z,30.66
2022-10-03T01:50:46.567Z,30.17
2022-10-03T01:52:11.979Z,29.86
2022-10-03T01:53:37.060Z,30.28
2022-10-03T01:54:46.961Z,30.05
2022-10-03T01:55:51.529Z,30.52
2022-10-03T01:57:18.763Z,30.50
2022-10-03T01:58:34.593Z,30.02
2022-10-03T01:59:55.584Z,30.49
2022-10-03T02:01:10.665Z,30.24
2022-10-03T02:02:40.438Z,30.00
2022-10-03T02:03:57.196Z,30.02
2022-10-03T02:05:23.729Z,30.09
2022-10-03T02:06:35.302Z,30.58
2022-10-03T02:08:08.041Z,30.60
2022-10-03T02:09:16.527Z,30.41
2022-10-03T02:10:59.642Z,29.91
2022-10-03T02:12:19.877Z,29.99
2022-10-03T02:13:50.719Z,30.19
2022-10-03T02:15:37.571Z,30.53
2022-10-03T02:17:10.850Z,30.34
2022-10-03T02:18:25.350Z,30.19
2022-10-03T02:19:30.395Z,30.22
2022-10-03T02:20:43.352Z,30.01
2022-10-03T02:21:51.520Z,30.31
2022-10-03T02:22:56.185Z,30.09
2022-10-03T02:24:16.089Z,30.11
2022-10-03T02:25:31.412Z,30.11
2022-10-03T02:27:21.275Z,30.04
2022-10-03T02:28:34.989Z,30.22
2022-10-03T02:30:17.252Z,30.16
2022-10-03T02:31:57.768Z,29.72
2022-10-03T02:33:17.653Z,30.29
2022-10-03T02:34:25.348Z,30.52
2022-10-03T02:36:04.315Z,29.85
2022-10-03T02:37:08.620Z,30.71
2022-10-03T02:38:37.325Z,30.22
2022-10-03T02:40:17.776Z,30.67
2022-10-03T02:41:44.148Z,30.58
2022-10-03T02:43:16.135Z,29.86
2022-10-03T02:44:20.420Z,30.67
2022-10-03T02:45:43.509Z,30.41
2022-10-03T02:47:03.115Z,30.55
2022-10-03T02:48:43.104Z,29.92
2022-10-03T02:50:06.211Z,29.88
2022-10-03T02:51:10.684Z,30.10
2022-10-03T02:52:53.956Z,29.94
2022-10-03T02:54:37.770Z,30.48
2022-10-03T02:56:04.052Z,30.53
2022-10-03T02:57:23.479Z,29.83
2022-10-03T02:58:49.479Z,30.57
2022-10-03T03:00:04.090Z,29.95
2022-10-03T03:01:23.752Z,30.48
2022-10-03T03:03:04.296Z,30.29
2022-10-03T03:04:24.827Z,30.16
2022-10-03T03:05:45.369Z,30.37
2022-10-03T03:07:26.608Z,29.77
2022-10-03T03:08:43.515Z,30.08
2022-10-03T03:10:15.082Z,30.56
2022-10-03T03:11:39.461Z,30.19
2022-10-03T03:13:18.531Z,30.36
2022-10-03T03:14:26.660Z,30.04
2022-10-03T03:15:50.159Z,29.96
2022-10-03T03:17:24.519Z,30.55
2022-10-03T03:18:26.173Z,29.79
2022-10-03T03:19:36.548Z,29.82
2022-10-03T03:21:11.475Z,29.99
2022-10-03T03:22:25.972Z,30.32
2022-10-03T03:23:56.965Z,30.43
2022-10-03T03:25:16.994Z,30.33
2022-10-03T03:26:31.917Z,30.66
2022-10-03T03:28:27.706Z,30.64
2022-10-03T03:29:48.828Z,30.37
2022-10-03T03:30:50.479Z,30.37
2022-10-03T03:31:55.285Z,30.20
2022-10-03T03:33:07.164Z,30.31
2022-10-03T03:34:34.857Z,30.41
2022-10-03T03:36:10.450Z,29.68
2022-10-03T03:37:19.921Z,29.94
2022-10-03T03:38:35.511Z,29.87
2022-10-03T03:39:55.790Z,29.99
2022-10-03T03:41:31.326Z,30.27
2022-10-03T03:43:05.805Z,30.39
2022-10-03T03:44:29.950Z,30.12
2022-10-03T03:45:50.583Z,29.88
2022-10-03T03:47:24.621Z,29.90
2022-10-03T03:48:42.365Z,29.92
2022-10-03T03:50:07.835Z,30.38
2022-10-03T03:51:47.428Z,29.88
2022-10-03T03:52:59.709Z,29.89
2022-10-03T03:54:46.559Z,30.09
2022-10-03T03:56:09.534Z,30.33
2022-10-03T03:57:39.850Z,30.16
2022-10-03T03:59:05.680Z,29.87
2022-10-03T04:00:17.439Z,29.65
2022-10-03T04:01:31.936Z,30.49
2022-10-03T04:02:53.992Z,30.31
2022-10-03T04:04:16.982Z,29.79
2022-10-03T04:05:42.228Z,30.22
2022-10-03T04:06:57.836Z,30.25
2022-10-03T04:08:31.974Z,29.80
2022-10-03T04:09:45.744Z,30.45
2022-10-03T04:11:39.212Z,30.18
2022-10-03T04:13:02.338Z,29.98
2022-10-03T04:14:29.939Z,29.56
2022-10-03T04:15:37.301Z,29.67
2022-10-03T04:17:04.803Z,29.67
2022-10-03T04:18:54.170Z,29.93
2022-10-03T04:20:04.682Z,29.48
2022-10-03T04:21:07.140Z,30.43
2022-10-03T04:22:29.595Z,30.10
2022-10-03T04:23:43.766Z,30.08
2022-10-03T04:25:06.187Z,29.98
2022-10-03T04:26:29.056Z,29.64
2022-10-03T04:28:04.966Z,30.51
2022-10-03T04:29:06.693Z,29.53
2022-10-03T04:30:15.314Z,30.03
2022-10-03T04:31:49.607Z,30.53
2022-10-03T04:33:05.577Z,30.11
2022-10-03T04:34:10.270Z,30.03
2022-10-03T04:35:42.854Z,30.48
2022-10-03T04:37:03.660Z,30.09
2022-10-03T04:38:39.166Z,30.17
2022-10-03T04:40:11.941Z,30.39
2022-10-03T04:41:29.521Z,29.55
2022-10-03T04:42:58.407Z,29.94
2022-10-03T04:44:12.113Z,30.35
2022-10-03T04:45:19.816Z,30.44
2022-10-03T04:46:33.842Z,30.26
2022-10-03T04:47:52.778Z,29.73
2022-10-03T04:49:18.818Z,29.66
2022-10-03T04:50:32.822Z,29.68
2022-10-03T04:51:48.510Z,30.35
2022-10-03T04:53:25.985Z,29.85
2022-10-03T04:54:51.097Z,29.61
2022-10-03T04:56:12.929Z,30.38
2022-10-03T04:57:28.758Z,29.96
2022-10-03T04:58:39.479Z,30.43
2022-10-03T04:59:49.025Z,30.02
2022-10-03T05:00:57.544Z,30.40
2022-10-03T05:02:30.217Z,30.19
2022-10-03T05:03:49.740Z,30.39
2022-10-03T05:05:03.213Z,30.35
2022-10-03T05:06:32.367Z,29.59
2022-10-03T05:07:51.059Z,30.37
2022-10-03T05:09:11.771Z,29.96
2022-10-03T05:10:44.825Z,29.70
2022-10-03T05:11:59.654Z,30.16
2022-10-03T05:13:19.449Z,30.20
2022-10-03T05:14:30.187Z,29.91
2022-10-03T05:15:50.412Z,29.87
2022-10-03T05:17:07.495Z,29.88
2022-10-03T05:18:26.678Z,29.91
2022-10-03T05:19:46.843Z,30.38
2022-10-03T05:20:57.815Z,29.65
2022-10-03T05:22:08.292Z,29.66
2022-10-03T05:23:30.085Z,29.70
2022-10-03T05:25:02.898Z,29.87
2022-10-03T05:26:44.487Z,29.63
2022-10-03T05:28:15.547Z,29.38
2022-10-03T05:29:37.428Z,29.31
2022-10-03T05:31:17.872Z,29.27
2022-10-03T05:32:48.027Z,28.82
2022-10-03T05:34:12.790Z,29.03
2022-10-03T05:35:20.237Z,29.19
2022-10-03T05:36:43.834Z,28.79
2022-10-03T05:38:13.326Z,28.73
2022-10-03T05:39:26.495Z,28.77
2022-10-03T05:40:30.641Z,28.69
2022-10-03T05:41:36.423Z,28.64
2022-10-03T05:42:58.332Z,28.49
2022-10-03T05:44:17.788Z,28.66
2022-10-03T05:45:23.571Z,28.28
2022-10-03T05:47:05.446Z,28.95
2022-10-03T05:48:32.247Z,28.83
2022-10-03T05:49:36.423Z,28.48
2022-10-03T05:50:58.409Z,28.16
2022-10-03T05:52:28.845Z,28.18
2022-10-03T05:53:39.368Z,28.75
2022-10-03T05:54:50.421Z,28.34
2022-10-03T05:56:15.835Z,28.65
2022-10-03T05:57:32.716Z,28.65
2022-10-03T05:58:40.562Z,28.38
2022-10-03T06:00:00.130Z,28.37
2022-10-03T06:01:26.712Z,27.96
2022-10-03T06:02:49.894Z,28.95
2022-10-03T06:04:19.305Z,27.91
2022-10-03T06:05:35.962Z,28.44
2022-10-03T06:07:01.830Z,28.25
2022-10-03T06:08:41.905Z,28.03
2022-10-03T06:10:05.590Z,28.18
2022-10-03T06:11:22.155Z,28.30
2022-10-03T06:12:50.955Z,28.42
2022-10-03T06:14:35.510Z,27.87
2022-10-03T06:15:55.995Z,27.55
2022-10-03T06:17:24.563Z,28.05
2022-10-03T06:18:44.173Z,27.69
2022-10-03T06:19:56.943Z,28.04
2022-10-03T06:21:23.448Z,27.68
2022-10-03T06:22:34.120Z,27.63
2022-10-03T06:24:20.423Z,28.34
2022-10-03T06:25:48.212Z,27.89
2022-10-03T06:27:27.382Z,27.59
2022-10-03T06:28:48.716Z,27.94
2022-10-03T06:30:05.880Z,27.57
2022-10-03T06:31:07.662Z,27.79
2022-10-03T06:32:09.392Z,28.11
2022-10-03T06:33:32.713Z,28.19
2022-10-03T06:35:06.468Z,28.08
2022-10-03T06:36:23.480Z,27.82
2022-10-03T06:37:59.002Z,28.24
2022-10-03T06:39:34.571Z,28.10
2022-10-03T06:41:03.515Z,27.87
2022-10-03T06:42:24.851Z,27.96
2022-10-03T06:44:07.994Z,28.18
2022-10-03T06:45:30.850Z,27.60
2022-10-03T06:46:50.918Z,27.87
2022-10-03T06:48:01.311Z,27.71
2022-10-03T06:49:23.483Z,28.26
2022-10-03T06:50:30.846Z,28.29
2022-10-03T06:51:54.344Z,28.65
2022-10-03T06:53:01.906Z,28.23
2022-10-03T06:54:24.914Z,28.52
2022-10-03T06:56:10.952Z,28.25
2022-10-03T06:57:56.783Z,28.18
2022-10-03T06:58:59.414Z,27.96
2022-10-03T07:00:11.070Z,28.13
2022-10-03T07:01:12.977Z,28.00
2022-10-03T07:02:20.375Z,28.60
2022-10-03T07:03:44.154Z,28.47
2022-10-03T07:05:10.065Z,28.51
2022-10-03T07:06:20.796Z,28.50
2022-10-03T07:07:34.556Z,28.61
2022-10-03T07:09:13.953Z,28.74
2022-10-03T07:10:28.098Z,28.34
2022-10-03T07:11:56.272Z,27.95
2022-10-03T07:13:00.951Z,27.82
2022-10-03T07:14:33.910Z,27.98
2022-10-03T07:17:39.357Z,28.01
2022-10-03T07:18:56.340Z,28.21
2022-10-03T07:20:26.095Z,27.90
2022-10-03T07:21:31.262Z,28.65
2022-10-03T07:23:04.891Z,28.03
2022-10-03T07:24:25.657Z,28.04
2022-10-03T07:25:39.295Z,28.21
2022-10-03T07:27:05.092Z,28.71
2022-10-03T07:28:49.619Z,28.67
2022-10-03T07:30:09.717Z,28.59
2022-10-03T07:31:33.842Z,28.44
2022-10-03T07:33:11.508Z,28.60
2022-10-03T07:34:34.405Z,28.50
2022-10-03T07:36:04.167Z,28.68
2022-10-03T07:37:27.293Z,28.76
2022-10-03T07:38:59.783Z,28.13
2022-10-03T07:40:26.868Z,28.19
2022-10-03T07:42:09.624Z,28.23
2022-10-03T07:43:26.023Z,28.71
2022-10-03T07:44:36.929Z,28.18
2022-10-03T07:45:45.774Z,28.74
2022-10-03T07:47:45.725Z,28.66
2022-10-03T07:48:58.970Z,28.74
2022-10-03T07:50:30.326Z,28.70
2022-10-03T07:52:00.863Z,28.78
2022-10-03T07:53:14.426Z,28.81
2022-10-03T07:54:24.892Z,28.36
2022-10-03T07:55:50.960Z,28.44
2022-10-03T07:57:13.817Z,28.53
2022-10-03T07:58:37.950Z,28.73
2022-10-03T08:00:12.358Z,28.32
2022-10-03T08:01:48.653Z,28.98
2022-10-03T08:02:59.051Z,29.06
2022-10-03T08:04:22.661Z,29.03
2022-10-03T08:05:30.246Z,28.43
2022-10-03T08:06:45.566Z,28.68
2022-10-03T08:08:08.253Z,29.16
2022-10-03T08:09:37.019Z,28.15
2022-10-03T08:10:59.356Z,28.44
2022-10-03T08:12:33.520Z,29.17
2022-10-03T08:13:41.711Z,28.97
2022-10-03T08:14:53.317Z,28.83
2022-10-03T08:16:08.539Z,29.13
2022-10-03T08:17:15.895Z,28.72
2022-10-03T08:18:32.072Z,28.83
2022-10-03T08:20:11.278Z,28.87
2022-10-03T08:21:36.862Z,28.93
2022-10-03T08:22:54.637Z,28.39
2022-10-03T08:24:13.660Z,28.59
2022-10-03T08:25:21.814Z,28.77
2022-10-03T08:26:32.948Z,28.80
2022-10-03T08:28:04.841Z,29.30
2022-10-03T08:29:23.860Z,28.79
2022-10-03T08:31:36.076Z,28.81
2022-10-03T08:32:37.843Z,29.14
2022-10-03T08:33:51.711Z,28.93
2022-10-03T08:34:56.374Z,29.27
2022-10-03T08:36:22.484Z,29.46
2022-10-03T08:37:54.790Z,29.31
2022-10-03T08:39:18.438Z,29.28
2022-10-03T08:40:31.740Z,28.73
2022-10-03T08:41:39.520Z,28.97
2022-10-03T08:43:05.993Z,29.50
2022-10-03T08:44:13.752Z,29.02
2022-10-03T08:45:51.843Z,29.30
2022-10-03T08:47:32.885Z,29.44
2022-10-03T08:48:53.122Z,29.20
2022-10-03T08:50:05.687Z,29.18
2022-10-03T08:51:47.961Z,29.57
2022-10-03T08:53:20.712Z,29.24
2022-10-03T08:54:45.773Z,28.97
2022-10-03T08:56:28.053Z,29.32
2022-10-03T08:57:38.787Z,29.38
2022-10-03T08:59:08.291Z,29.22
2022-10-03T09:00:36.370Z,29.16
2022-10-03T09:02:07.559Z,29.76
2022-10-03T09:03:47.062Z,29.55
2022-10-03T09:04:51.442Z,29.69
2022-10-03T09:06:19.526Z,29.28
2022-10-03T09:07:33.071Z,29.82
2022-10-03T09:09:06.006Z,29.80
2022-10-03T09:10:45.206Z,29.85
2022-10-03T09:12:24.243Z,29.20
2022-10-03T09:13:37.992Z,29.49
2022-10-03T09:14:42.428Z,29.74
2022-10-03T09:15:47.080Z,30.09
2022-10-03T09:17:03.116Z,29.49
2022-10-03T09:18:30.618Z,29.65
2022-10-03T09:19:38.714Z,30.15
2022-10-03T09:20:53.470Z,30.46
2022-10-03T09:22:14.737Z,29.90
2022-10-03T09:23:38.900Z,29.67
2022-10-03T09:25:13.922Z,29.84
2022-10-03T09:26:43.632Z,30.12
2022-10-03T09:28:12.771Z,30.14
2022-10-03T09:29:32.082Z,29.49
2022-10-03T09:30:50.400Z,30.23
2022-10-03T09:32:13.802Z,29.73
2022-10-03T09:33:42.143Z,30.02
2022-10-03T09:35:21.054Z,29.92
2022-10-03T09:36:44.496Z,30.03
2022-10-03T09:38:07.755Z,30.11
2022-10-03T09:39:30.950Z,30.07
2022-10-03T09:40:44.344Z,30.51
2022-10-03T09:42:00.934Z,29.87
2022-10-03T09:43:35.285Z,29.99
2022-10-03T09:45:19.051Z,30.10
2022-10-03T09:46:44.129Z,29.89
2022-10-03T09:48:24.111Z,29.96
2022-10-03T09:49:50.244Z,30.50
2022-10-03T09:51:02.033Z,30.13
2022-10-03T09:52:39.599Z,30.00
2022-10-03T09:53:56.399Z,30.68
2022-10-03T09:55:19.843Z,30.61
2022-10-03T09:56:40.657Z,30.25
2022-10-03T09:57:45.461Z,30.24
2022-10-03T09:59:11.257Z,30.65
2022-10-03T10:00:20.258Z,30.67
2022-10-03T10:01:42.935Z,30.52
2022-10-03T10:03:06.506Z,30.57
2022-10-03T10:04:50.219Z,30.43
2022-10-03T10:06:30.065Z,30.14
2022-10-03T10:07:34.639Z,30.79
2022-10-03T10:09:13.539Z,30.45
2022-10-03T10:10:21.016Z,30.83
2022-10-03T10:11:39.331Z,30.65
2022-10-03T10:13:18.320Z,30.50
2022-10-03T10:15:11.187Z,30.86
2022-10-03T10:16:52.027Z,30.21
2022-10-03T10:18:21.828Z,30.18
2022-10-03T10:19:31.673Z,30.46
2022-10-03T10:20:42.106Z,30.30
2022-10-03T10:21:49.469Z,30.31
2022-10-03T10:23:00.159Z,30.76
2022-10-03T10:24:28.178Z,30.76
2022-10-03T10:25:38.777Z,30.28
2022-10-03T10:26:54.145Z,30.80
2022-10-03T10:27:58.604Z,30.35
2022-10-03T10:29:26.686Z,30.71
2022-10-03T10:30:49.951Z,30.32
2022-10-03T10:32:21.534Z,30.57
2022-10-03T10:34:00.515Z,30.77
2022-10-03T10:35:31.212Z,30.33
2022-10-03T10:36:42.290Z,30.20
2022-10-03T10:38:09.656Z,30.82
2022-10-03T10:39:28.120Z,30.28
2022-10-03T10:40:59.851Z,30.60
2022-10-03T10:42:17.038Z,30.32
2022-10-03T10:43:49.597Z,30.47
2022-10-03T10:45:15.658Z,30.06
2022-10-03T10:46:23.063Z,30.39
2022-10-03T10:47:42.707Z,30.46
2022-10-03T10:49:38.360Z,30.69
2022-10-03T10:51:07.960Z,30.40
2022-10-03T10:52:27.966Z,30.03
2022-10-03T10:54:00.161Z,30.31
2022-10-03T10:55:03.731Z,30.43
2022-10-03T10:56:23.151Z,30.59
2022-10-03T10:57:59.929Z,30.63
2022-10-03T10:59:39.177Z,30.68
2022-10-03T11:00:58.946Z,30.33
2022-10-03T11:02:26.900Z,30.58
2022-10-03T11:03:47.318Z,30.45
2022-10-03T11:05:22.752Z,30.79
2022-10-03T11:06:29.944Z,30.47
2022-10-03T11:08:13.629Z,30.48
2022-10-03T11:09:33.980Z,30.65
2022-10-03T11:11:13.155Z,30.72
2022-10-03T11:12:44.166Z,30.76
2022-10-03T11:14:09.953Z,30.22
2022-10-03T11:15:36.728Z,30.91
2022-10-03T11:17:38.341Z,30.65
2022-10-03T11:19:14.081Z,30.46
2022-10-03T11:20:24.597Z,30.35
2022-10-03T11:21:33.301Z,30.37
2022-10-03T11:22:58.971Z,30.91
2022-10-03T11:24:41.295Z,30.60
2022-10-03T11:26:01.178Z,30.60
2022-10-03T11:27:20.910Z,30.31
2022-10-03T11:28:40.680Z,30.89
2022-10-03T11:30:19.251Z,30.94
2022-10-03T11:31:48.855Z,30.40
2022-10-03T11:33:15.069Z,30.72
2022-10-03T11:34:38.505Z,30.64
2022-10-03T11:35:46.028Z,30.27
2022-10-03T11:37:11.400Z,30.72
2022-10-03T11:38:25.369Z,30.38
2022-10-03T11:39:49.177Z,30.42
2022-10-03T11:41:11.620Z,30.73
2022-10-03T11:42:25.276Z,30.79
2022-10-03T11:43:45.255Z,30.88
2022-10-03T11:44:58.122Z,30.59
2022-10-03T11:46:21.471Z,30.60
2022-10-03T11:48:01.361Z,30.72
2022-10-03T11:49:30.699Z,30.46
2022-10-03T11:50:50.333Z,30.74
2022-10-03T11:52:24.419Z,30.56
2022-10-03T11:53:41.563Z,30.45
2022-10-03T11:54:49.195Z,30.24
2022-10-03T11:56:12.731Z,30.45
2022-10-03T11:57:23.466Z,30.36
2022-10-03T11:58:25.312Z,30.86
2022-10-03T11:59:48.651Z,30.92
2022-10-03T12:01:16.631Z,30.27
2022-10-03T12:03:03.137Z,30.66
2022-10-03T12:04:23.682Z,30.67
2022-10-03T12:05:37.894Z,30.60
2022-10-03T12:07:13.125Z,30.53
2022-10-03T12:08:50.092Z,30.43
2022-10-03T12:10:38.540Z,30.61
2022-10-03T12:11:53.806Z,30.72
2022-10-03T12:12:57.516Z,30.96
2022-10-03T12:14:11.150Z,30.72
2022-10-03T12:15:30.600Z,30.68
2022-10-03T12:16:54.242Z,30.31
2022-10-03T12:18:11.934Z,30.80
2022-10-03T12:19:25.096Z,30.91
2022-10-03T12:20:42.008Z,30.87
2022-10-03T12:22:01.097Z,30.67
2022-10-03T12:23:20.916Z,30.51
2022-10-03T12:24:28.154Z,30.60
2022-10-03T12:25:35.074Z,30.85
2022-10-03T12:26:55.406Z,30.47
2022-10-03T12:28:01.239Z,30.64
2022-10-03T12:29:05.207Z,31.01
2022-10-03T12:30:16.448Z,30.67
2022-10-03T12:31:21.892Z,30.50
2022-10-03T12:32:44.220Z,30.82
2022-10-03T12:33:51.702Z,30.94
2022-10-03T12:35:07.762Z,30.45
2022-10-03T12:36:15.485Z,30.89
2022-10-03T12:37:24.747Z,30.51
2022-10-03T12:38:51.275Z,30.75
2022-10-03T12:40:15.814Z,30.36
2022-10-03T12:41:43.052Z,30.66
2022-10-03T12:43:02.236Z,30.60
2022-10-03T12:44:07.035Z,30.55
2022-10-03T12:45:47.672Z,30.74
2022-10-03T12:47:37.707Z,30.21
2022-10-03T12:48:55.655Z,30.05
2022-10-03T12:50:29.290Z,30.30
2022-10-03T12:51:51.699Z,30.45
2022-10-03T12:53:02.706Z,30.38
2022-10-03T12:54:16.468Z,30.46
2022-10-03T12:55:28.416Z,30.40
2022-10-03T12:56:39.168Z,30.35
2022-10-03T12:57:49.568Z,30.56
2022-10-03T12:59:11.477Z,30.30
2022-10-03T13:00:27.781Z,30.57
2022-10-03T13:01:38.707Z,30.55
2022-10-03T13:03:06.393Z,30.28
2022-10-03T13:04:08.044Z,30.76
2022-10-03T13:05:38.548Z,30.31
2022-10-03T13:07:05.839Z,30.78
2022-10-03T13:08:19.682Z,30.74
2022-10-03T13:09:50.036Z,30.38
2022-10-03T13:11:03.155Z,30.31
2022-10-03T13:12:17.688Z,30.82
2022-10-03T13:13:36.552Z,30.46
2022-10-03T13:14:45.870Z,30.52
2022-10-03T13:16:19.791Z,30.48
2022-10-03T13:17:37.315Z,30.29
2022-10-03T13:18:51.119Z,30.23
2022-10-03T13:20:11.079Z,30.66
2022-10-03T13:21:44.573Z,30.49
2022-10-03T13:22:57.901Z,30.54
2022-10-03T13:24:09.815Z,30.40
2022-10-03T13:25:22.816Z,30.60
2022-10-03T13:26:50.875Z,30.42
2022-10-03T13:28:11.173Z,30.65
2022-10-03T13:29:25.609Z,30.41
2022-10-03T13:30:32.790Z,30.66
2022-10-03T13:31:39.193Z,30.68
2022-10-03T13:32:58.392Z,30.43
2022-10-03T13:34:12.837Z,30.39
2022-10-03T13:35:39.425Z,30.65
2022-10-03T13:36:55.215Z,30.55
2022-10-03T13:38:07.720Z,30.58
2022-10-03T13:39:38.472Z,30.44
2022-10-03T13:40:48.046Z,30.13
2022-10-03T13:42:20.848Z,30.18
2022-10-03T13:43:33.390Z,30.43
2022-10-03T13:44:40.310Z,30.14
2022-10-03T13:45:44.733Z,30.29
2022-10-03T13:46:53.503Z,30.34
2022-10-03T13:48:06.787Z,30.51
2022-10-03T13:49:22.801Z,30.33
2022-10-03T13:50:43.487Z,30.49
2022-10-03T13:52:16.598Z,30.22
2022-10-03T13:53:30.124Z,30.04
2022-10-03T13:55:03.630Z,30.23
2022-10-03T13:56:14.178Z,30.45
2022-10-03T13:57:21.878Z,30.09
2022-10-03T13:58:36.705Z,30.45
2022-10-03T13:59:50.661Z,30.17
2022-10-03T14:01:17.355Z,30.11
2022-10-03T14:02:50.284Z,30.63
2022-10-03T14:04:22.802Z,30.61
2022-10-03T14:06:10.239Z,30.29
2022-10-03T14:07:41.041Z,30.00
2022-10-03T14:09:12.241Z,29.99
2022-10-03T14:10:26.815Z,30.02
2022-10-03T14:12:12.010Z,30.13
2022-10-03T14:13:38.753Z,30.52
2022-10-03T14:14:43.516Z,30.49
2022-10-03T14:16:13.627Z,30.27
2022-10-03T14:17:26.183Z,30.64
2022-10-03T14:18:45.743Z,30.15
2022-10-03T14:19:59.736Z,30.67
2022-10-03T14:21:29.292Z,30.01
2022-10-03T14:22:45.608Z,30.28
2022-10-03T14:24:01.347Z,30.64
2022-10-03T14:25:41.295Z,30.13
2022-10-03T14:26:45.543Z,30.18
2022-10-03T14:27:59.235Z,30.61
2022-10-03T14:29:26.097Z,30.13
2022-10-03T14:30:36.776Z,30.70
2022-10-03T14:31:57.508Z,30.23
2022-10-03T14:33:13.207Z,30.39
2022-10-03T14:34:41.005Z,30.47
2022-10-03T14:36:17.023Z,30.52
2022-10-03T14:37:27.680Z,30.09
2022-10-03T14:39:03.359Z,30.08
2022-10-03T14:40:07.949Z,30.12
2022-10-03T14:41:14.899Z,30.44
2022-10-03T14:42:38.204Z,30.72
2022-10-03T14:43:49.786Z,30.42
2022-10-03T14:45:01.787Z,30.24
2022-10-03T14:46:06.235Z,30.42
2022-10-03T14:47:14.937Z,30.36
2022-10-03T14:48:22.396Z,30.50
2022-10-03T14:51:10.462Z,30.22
2022-10-03T14:52:28.904Z,30.69
2022-10-03T14:53:31.081Z,30.52
2022-10-03T14:54:37.730Z,30.43
2022-10-03T14:55:46.668Z,30.71
2022-10-03T14:56:51.607Z,30.23
2022-10-03T14:58:10.244Z,30.67
2022-10-03T14:59:20.628Z,30.62
2022-10-03T15:00:27.813Z,30.66
2022-10-03T15:01:30.124Z,30.21
2022-10-03T15:02:38.700Z,30.53
2022-10-03T15:03:45.324Z,30.30
2022-10-03T15:04:47.947Z,30.33
2022-10-03T15:05:59.420Z,30.26
2022-10-03T15:07:02.926Z,30.15
2022-10-03T15:08:15.372Z,30.47
2022-10-03T15:09:24.686Z,30.25
2022-10-03T15:10:29.333Z,30.40
2022-10-03T15:11:36.942Z,30.51
2022-10-03T15:12:43.929Z,30.23
2022-10-03T15:13:53.283Z,30.42
2022-10-03T15:15:01.245Z,30.20
2022-10-03T15:16:03.221Z,30.40
2022-10-03T15:17:16.688Z,30.44
2022-10-03T15:18:23.133Z,30.22
2022-10-03T15:19:39.720Z,30.26
2022-10-03T15:20:43.397Z,29.92
2022-10-03T15:21:47.262Z,30.39
2022-10-03T15:22:53.520Z,30.35
2022-10-03T15:24:02.072Z,30.38
2022-10-03T15:25:09.860Z,30.43
2022-10-03T15:26:21.944Z,30.32
2022-10-03T15:27:26.759Z,30.37
2022-10-03T15:28:37.008Z,30.41
2022-10-03T15:29:40.508Z,30.27
2022-10-03T15:30:43.267Z,30.21
2022-10-03T15:31:49.280Z,30.32
2022-10-03T15:32:53.175Z,30.21
2022-10-03T15:33:56.186Z,30.41
2022-10-03T15:35:02.138Z,30.18
2022-10-03T15:36:14.809Z,30.30
2022-10-03T15:37:20.800Z,30.50
2022-10-03T15:38:27.381Z,30.20
2022-10-03T15:39:35.486Z,30.13
2022-10-03T15:40:47.112Z,30.03
2022-10-03T15:41:56.641Z,30.38
2022-10-03T15:43:08.626Z,29.95
2022-10-03T15:44:29.087Z,30.01
2022-10-03T15:45:34.933Z,29.93
2022-10-03T15:46:43.499Z,30.16
2022-10-03T15:47:47.880Z,30.23
2022-10-03T15:48:54.381Z,29.88
2022-10-03T15:50:07.173Z,30.14
2022-10-03T15:51:19.695Z,30.07
2022-10-03T15:52:42.740Z,30.19
2022-10-03T15:53:50.252Z,30.18
2022-10-03T15:55:10.944Z,29.89
2022-10-03T15:56:46.433Z,29.74
2022-10-03T15:57:51.192Z,30.13
2022-10-03T15:59:01.248Z,29.92
2022-10-03T16:00:04.887Z,30.14
2022-10-03T16:01:20.818Z,30.00
2022-10-03T16:02:27.176Z,30.16
2022-10-03T16:03:32.656Z,29.94
2022-10-03T16:04:38.326Z,30.25
2022-10-03T16:05:55.120Z,30.11
2022-10-03T16:07:07.965Z,30.24
2022-10-03T16:08:19.661Z,29.93
2022-10-03T16:09:46.315Z,30.00
2022-10-03T16:11:29.035Z,30.24
2022-10-03T16:12:52.075Z,30.12
2022-10-03T16:13:53.742Z,29.88
2022-10-03T16:15:17.013Z,30.29
2022-10-03T16:16:38.455Z,29.87
2022-10-03T16:17:57.232Z,30.05
2022-10-03T16:19:06.701Z,29.90
2022-10-03T16:20:45.836Z,29.85
2022-10-03T16:22:29.594Z,30.13
2022-10-03T16:23:36.751Z,29.75
2022-10-03T16:24:57.360Z,29.70
2022-10-03T16:26:04.479Z,29.96
2022-10-03T16:27:23.345Z,30.31
2022-10-03T16:28:35.292Z,29.95
2022-10-03T16:29:42.578Z,30.06
2022-10-03T16:30:59.934Z,30.26
2022-10-03T16:32:15.836Z,30.36
2022-10-03T16:33:24.310Z,29.88
2022-10-03T16:34:31.115Z,30.07
2022-10-03T16:35:49.014Z,29.95
2022-10-03T16:36:51.541Z,30.06
2022-10-03T16:37:53.970Z,30.24
2022-10-03T16:39:00.079Z,30.28
2022-10-03T16:40:07.556Z,29.97
2022-10-03T16:41:09.197Z,30.26
2022-10-03T16:42:19.034Z,29.91
2022-10-03T16:43:22.334Z,30.26
2022-10-03T16:44:31.192Z,30.58
2022-10-03T16:45:46.658Z,29.90
2022-10-03T16:46:49.738Z,30.20
2022-10-03T16:48:13.779Z,29.99
2022-10-03T16:49:43.340Z,30.20
2022-10-03T16:50:50.058Z,29.97
2022-10-03T16:52:10.700Z,30.32
2022-10-03T16:53:13.990Z,29.88
2022-10-03T16:54:18.808Z,30.08
2022-10-03T16:55:28.486Z,30.01
2022-10-03T16:56:36.595Z,30.07
2022-10-03T16:57:48.117Z,30.01
2022-10-03T16:58:55.657Z,30.02
2022-10-03T17:00:00.305Z,30.11
2022-10-03T17:02:30.780Z,29.93
2022-10-03T17:04:10.115Z,29.67
2022-10-03T17:05:15.081Z,29.80
2022-10-03T17:06:29.813Z,30.23
2022-10-03T17:07:40.029Z,30.13
2022-10-03T17:08:49.557Z,30.29
2022-10-03T17:09:55.815Z,30.05
2022-10-03T17:11:01.174Z,30.08
2022-10-03T17:12:06.336Z,29.95
2022-10-03T17:13:18.699Z,29.81
2022-10-03T17:14:22.123Z,29.69
2022-10-03T17:15:29.416Z,29.95
2022-10-03T17:16:37.513Z,29.92
2022-10-03T17:18:02.793Z,30.17
2022-10-03T17:19:16.275Z,30.07